createdAt,value
2022-07-25T00:01:37.410Z,16.60
2022-07-25T00:06:42.043Z,16.50
2022-07-25T00:11:45.253Z,16.60
2022-07-25T00:16:49.703Z,16.50
2022-07-25T00:21:53.418Z,16.60
2022-07-25T00:26:56.605Z,16.70
2022-07-25T00:32:02.160Z,16.70
2022-07-25T00:37:05.314Z,16.80
2022-07-25T00:42:08.396Z,16.80
2022-07-25T00:47:12.999Z,16.60
2022-07-25T00:52:16.348Z,16.50
2022-07-25T00:57:19.496Z,16.70
2022-07-25T01:02:23.902Z,16.70
2022-07-25T01:07:27.455Z,16.70
2022-07-25T01:12:30.733Z,16.60
2022-07-25T01:17:35.285Z,16.60
2022-07-25T01:22:39.684Z,16.70
2022-07-25T01:27:44.093Z,16.60
2022-07-25T01:32:47.941Z,16.70
2022-07-25T01:37:52.385Z,16.90
2022-07-25T01:42:55.462Z,17.00
2022-07-25T01:47:58.910Z,17.10
2022-07-25T01:53:03.730Z,17.30
2022-07-25T01:58:07.426Z,17.30
2022-07-25T02:03:29.530Z,17.40
2022-07-25T02:08:34.722Z,17.30
2022-07-25T02:13:37.764Z,17.40
2022-07-25T02:18:40.760Z,17.40
2022-07-25T02:23:45.562Z,17.30
2022-07-25T02:28:49.713Z,17.20
2022-07-25T02:33:52.852Z,17.00
2022-07-25T02:38:57.230Z,17.10
2022-07-25T02:44:00.310Z,17.00
2022-07-25T02:49:03.970Z,16.90
2022-07-25T02:54:08.431Z,16.90
2022-07-25T02:59:11.506Z,16.80
2022-07-25T03:04:15.242Z,16.70
2022-07-25T03:09:21.503Z,16.60
2022-07-25T03:14:24.543Z,16.60
2022-07-25T03:19:27.640Z,16.50
2022-07-25T03:24:32.072Z,16.40
2022-07-25T03:29:35.902Z,16.20
2022-07-25T03:34:39.097Z,16.10
2022-07-25T03:39:43.511Z,16.00
2022-07-25T03:44:46.644Z,16.00
2022-07-25T03:49:49.657Z,16.00
2022-07-25T03:54:54.004Z,16.10
2022-07-25T03:59:57.046Z,16.10
2022-07-25T04:05:00.181Z,16.10
2022-07-25T04:10:05.725Z,16.20
2022-07-25T04:15:10.385Z,16.20
2022-07-25T04:20:13.512Z,16.20
2022-07-25T04:25:18.055Z,16.30
2022-07-25T04:30:24.492Z,16.30
2022-07-25T04:35:28.002Z,16.60
2022-07-25T04:40:32.454Z,16.80
2022-07-25T04:45:35.746Z,17.10
2022-07-25T04:50:39.037Z,17.30
2022-07-25T04:55:43.433Z,17.50
2022-07-25T05:00:46.740Z,18.20
2022-07-25T05:05:49.798Z,19.60
2022-07-25T05:10:54.190Z,22.30
2022-07-25T05:15:57.261Z,24.30
2022-07-25T05:21:00.301Z,25.90
2022-07-25T05:26:04.905Z,26.90
2022-07-25T05:31:07.909Z,28.10
2022-07-25T05:36:11.027Z,28.60
2022-07-25T05:41:16.189Z,29.60
2022-07-25T05:46:19.341Z,29.70
2022-07-25T05:51:26.737Z,29.80
2022-07-25T05:56:31.900Z,31.20
2022-07-25T06:01:34.896Z,31.20
2022-07-25T06:06:37.970Z,31.40
2022-07-25T06:11:54.559Z,32.50
2022-07-25T06:17:03.802Z,33.10
2022-07-25T06:22:08.300Z,32.50
2022-07-25T06:27:16.019Z,33.00
2022-07-25T06:32:21.549Z,33.70
2022-07-25T06:37:24.639Z,34.40
2022-07-25T06:42:31.371Z,34.20
2022-07-25T06:47:36.175Z,33.40
2022-07-25T06:52:39.583Z,34.00
2022-07-25T06:57:43.994Z,33.40
2022-07-25T07:02:52.190Z,33.40
2022-07-25T07:07:55.587Z,34.00
2022-07-25T07:13:08.227Z,34.30
2022-07-25T07:18:11.373Z,34.20
2022-07-25T07:23:16.520Z,34.20
2022-07-25T07:28:21.345Z,34.30
2022-07-25T07:33:24.451Z,35.20
2022-07-25T07:38:27.728Z,35.60
2022-07-25T07:43:32.176Z,35.80
2022-07-25T07:48:36.143Z,35.10
2022-07-25T07:53:57.585Z,36.10
2022-07-25T07:59:02.022Z,36.30
2022-07-25T08:04:05.688Z,35.60
2022-07-25T08:09:09.119Z,35.70
2022-07-25T08:14:13.797Z,36.00
2022-07-25T08:19:16.899Z,36.00
2022-07-25T08:24:19.974Z,35.50
2022-07-25T08:29:28.212Z,35.60
2022-07-25T08:34:32.394Z,35.20
2022-07-25T08:39:35.433Z,36.00
2022-07-25T08:44:44.144Z,36.30
2022-07-25T08:49:47.219Z,37.40
2022-07-25T08:54:51.605Z,38.00
2022-07-25T08:59:59.002Z,37.10
2022-07-25T09:05:02.146Z,37.80
2022-07-25T09:10:16.452Z,36.60
2022-07-25T09:15:29.496Z,36.90
2022-07-25T09:20:40.515Z,37.80
2022-07-25T09:25:43.632Z,37.30
2022-07-25T09:30:55.141Z,37.90
2022-07-25T09:35:58.433Z,37.80
2022-07-25T09:41:02.939Z,37.80
2022-07-25T09:46:08.498Z,37.80
2022-07-25T09:51:12.522Z,38.60
2022-07-25T09:56:15.613Z,38.30
2022-07-25T10:01:22.625Z,38.40
2022-07-25T10:06:39.033Z,38.90
2022-07-25T10:12:06.168Z,38.50
2022-07-25T10:17:21.348Z,38.40
2022-07-25T10:22:55.143Z,39.40
2022-07-25T10:28:08.222Z,38.70
2022-07-25T10:33:14.514Z,37.90
2022-07-25T10:38:24.858Z,38.50
2022-07-25T10:43:29.156Z,38.70
2022-07-25T10:48:33.580Z,39.10
2022-07-25T10:53:41.010Z,38.80
2022-07-25T10:58:46.749Z,37.80
2022-07-25T11:03:51.927Z,39.10
2022-07-25T11:08:57.753Z,39.20
2022-07-25T11:14:01.414Z,39.50
2022-07-25T11:19:16.407Z,39.40
2022-07-25T11:24:20.038Z,40.00
2022-07-25T11:29:26.970Z,39.60
2022-07-25T11:34:33.787Z,38.90
2022-07-25T11:39:38.921Z,39.10
2022-07-25T11:44:48.156Z,38.40
2022-07-25T11:49:54.370Z,37.30
2022-07-25T11:55:01.307Z,36.40
2022-07-25T12:00:09.223Z,36.90
2022-07-25T12:05:15.474Z,36.60
2022-07-25T12:10:21.734Z,36.60
2022-07-25T12:15:26.839Z,36.30
2022-07-25T12:20:33.478Z,37.10
2022-07-25T12:25:37.998Z,37.80
2022-07-25T12:30:43.015Z,37.30
2022-07-25T12:35:47.638Z,36.30
2022-07-25T12:40:51.007Z,37.70
2022-07-25T12:45:54.202Z,37.90
2022-07-25T12:50:58.621Z,38.00
2022-07-25T12:56:01.743Z,37.10
2022-07-25T13:01:05.924Z,36.40
2022-07-25T13:06:10.466Z,36.20
2022-07-25T13:11:13.585Z,36.60
2022-07-25T13:16:16.843Z,36.40
2022-07-25T13:21:21.679Z,36.00
2022-07-25T13:26:25.029Z,35.80
2022-07-25T13:31:28.154Z,36.40
2022-07-25T13:36:33.501Z,36.50
2022-07-25T13:41:36.691Z,36.20
2022-07-25T13:46:39.602Z,36.10
2022-07-25T13:51:45.501Z,36.40
2022-07-25T13:56:48.649Z,36.30
2022-07-25T14:01:51.635Z,36.20
2022-07-25T14:06:56.174Z,36.70
2022-07-25T14:11:59.281Z,36.50
2022-07-25T14:17:02.284Z,36.60
2022-07-25T14:22:06.810Z,36.50
2022-07-25T14:27:10.682Z,36.90
2022-07-25T14:32:13.858Z,36.60
2022-07-25T14:37:18.507Z,35.30
2022-07-25T14:42:21.645Z,34.70
2022-07-25T14:47:27.311Z,34.80
2022-07-25T14:52:32.194Z,34.70
2022-07-25T14:57:35.414Z,34.50
2022-07-25T15:02:38.453Z,34.20
2022-07-25T15:07:42.803Z,34.60
2022-07-25T15:12:45.853Z,34.60
2022-07-25T15:17:48.879Z,34.50
2022-07-25T15:22:53.344Z,34.70
2022-07-25T15:27:57.342Z,35.30
2022-07-25T15:33:00.423Z,36.10
2022-07-25T15:38:04.649Z,36.50
2022-07-25T15:43:07.926Z,35.90
2022-07-25T15:48:13.909Z,36.30
2022-07-25T15:53:18.375Z,36.70
2022-07-25T15:58:21.458Z,37.00
2022-07-25T16:03:24.678Z,36.50
2022-07-25T16:08:29.106Z,35.60
2022-07-25T16:13:32.301Z,34.50
2022-07-25T16:18:35.606Z,34.00
2022-07-25T16:23:44.948Z,33.70
2022-07-25T16:28:48.917Z,33.40
2022-07-25T16:33:52.375Z,33.00
2022-07-25T16:38:57.245Z,32.70
2022-07-25T16:44:00.455Z,32.70
2022-07-25T16:49:04.299Z,31.70
2022-07-25T16:54:09.067Z,26.40
2022-07-25T16:59:12.265Z,23.60
2022-07-25T17:04:15.590Z,22.70
2022-07-25T17:09:20.084Z,22.50
2022-07-25T17:14:26.422Z,22.30
2022-07-25T17:19:35.841Z,22.40
2022-07-25T17:24:40.499Z,22.00
2022-07-25T17:29:43.682Z,21.80
2022-07-25T17:34:47.173Z,21.60
2022-07-25T17:39:51.722Z,21.70
2022-07-25T17:44:54.834Z,21.90
2022-07-25T17:49:57.860Z,21.90
2022-07-25T17:55:02.323Z,22.00
2022-07-25T18:00:07.223Z,22.30
2022-07-25T18:05:14.810Z,22.30
2022-07-25T18:10:21.762Z,22.40
2022-07-25T18:15:25.014Z,22.50
2022-07-25T18:20:28.237Z,22.60
2022-07-25T18:25:32.793Z,22.60
2022-07-25T18:30:36.269Z,22.60
2022-07-25T18:35:39.388Z,22.70
2022-07-25T18:40:43.741Z,22.60
2022-07-25T18:45:47.973Z,22.50
2022-07-25T18:50:51.005Z,22.40
2022-07-25T18:55:55.525Z,22.40
2022-07-25T19:00:58.895Z,22.40
2022-07-25T19:06:03.644Z,22.40
2022-07-25T19:11:08.644Z,22.40
2022-07-25T19:16:11.954Z,22.30
2022-07-25T19:21:15.513Z,22.20
2022-07-25T19:26:21.009Z,22.20
2022-07-25T19:31:24.255Z,22.00
2022-07-25T19:36:27.584Z,22.20
2022-07-25T19:41:32.234Z,22.20
2022-07-25T19:46:35.661Z,22.00
2022-07-25T19:51:38.733Z,21.90
2022-07-25T19:56:43.184Z,21.90
2022-07-25T20:01:47.391Z,21.80
2022-07-25T20:06:50.842Z,21.70
2022-07-25T20:11:56.227Z,21.80
2022-07-25T20:16:59.382Z,21.90
2022-07-25T20:22:03.402Z,22.00
2022-07-25T20:27:07.942Z,21.90
2022-07-25T20:32:10.987Z,21.90
2022-07-25T20:37:14.114Z,21.90
2022-07-25T20:42:19.146Z,21.80
2022-07-25T20:47:22.304Z,21.70
2022-07-25T20:52:27.409Z,21.70
2022-07-25T20:57:31.736Z,21.70
2022-07-25T21:02:34.831Z,21.70
2022-07-25T21:07:37.939Z,21.60
2022-07-25T21:12:42.506Z,21.40
2022-07-25T21:17:45.881Z,21.50
2022-07-25T21:22:49.148Z,21.40
2022-07-25T21:27:53.647Z,21.40
2022-07-25T21:32:56.892Z,21.30
2022-07-25T21:38:00.155Z,21.40
2022-07-25T21:43:04.578Z,21.30
2022-07-25T21:48:08.750Z,21.20
2022-07-25T21:53:14.594Z,21.10
2022-07-25T21:58:21.564Z,21.10
2022-07-25T22:03:26.209Z,21.40
2022-07-25T22:08:29.331Z,21.20
2022-07-25T22:13:33.856Z,21.10
2022-07-25T22:18:36.885Z,20.80
2022-07-25T22:23:40.695Z,20.60
2022-07-25T22:28:45.825Z,20.40
2022-07-25T22:33:49.073Z,20.50
2022-07-25T22:38:53.055Z,20.40
2022-07-25T22:43:59.968Z,20.40
2022-07-25T22:49:04.406Z,20.40
2022-07-25T22:54:07.757Z,20.30
2022-07-25T22:59:13.103Z,20.20
2022-07-25T23:04:16.352Z,20.20
2022-07-25T23:09:19.725Z,20.10
2022-07-25T23:14:24.246Z,20.20
2022-07-25T23:19:27.335Z,20.10
2022-07-25T23:24:34.405Z,20.20
2022-07-25T23:29:42.033Z,20.10
2022-07-25T23:34:45.464Z,19.90
2022-07-25T23:39:49.167Z,19.90
2022-07-25T23:44:53.811Z,19.80
2022-07-25T23:49:58.366Z,19.90
2022-07-25T23:55:01.534Z,19.80
